createdAt,value
2019-06-27T00:01:37.567Z,17.80
2019-06-27T00:06:42.251Z,17.70
2019-06-27T00:11:52.527Z,17.60
2019-06-27T00:16:57.265Z,17.50
2019-06-27T00:22:00.636Z,17.50
2019-06-27T00:27:07.720Z,17.40
2019-06-27T00:32:09.079Z,17.40
2019-06-27T00:37:10.564Z,17.30
2019-06-27T00:42:17.655Z,17.20
2019-06-27T00:47:44.863Z,17.10
2019-06-27T00:52:52.727Z,17.00
2019-06-27T00:58:21.703Z,17.00
2019-06-27T01:03:28.865Z,16.90
2019-06-27T01:08:55.046Z,16.80
2019-06-27T01:14:03.577Z,16.70
2019-06-27T01:19:07.951Z,16.70
2019-06-27T01:24:12.484Z,16.70
2019-06-27T01:29:19.696Z,16.60
2019-06-27T01:34:31.416Z,16.50
2019-06-27T01:39:33.328Z,16.40
2019-06-27T01:44:42.557Z,16.40
2019-06-27T01:49:46.890Z,16.40
2019-06-27T01:54:51.424Z,16.30
2019-06-27T02:00:17.972Z,16.20
2019-06-27T02:05:41.275Z,16.20
2019-06-27T02:10:59.226Z,16.10
2019-06-27T02:16:11.663Z,16.00
2019-06-27T02:21:12.896Z,16.00
2019-06-27T02:26:14.454Z,15.90
2019-06-27T02:31:18.132Z,15.90
2019-06-27T02:36:22.747Z,15.80
2019-06-27T02:41:26.129Z,15.70
2019-06-27T02:46:33.181Z,15.70
2019-06-27T02:51:34.428Z,15.70
2019-06-27T02:56:51.064Z,15.60
2019-06-27T03:01:52.303Z,15.60
2019-06-27T03:06:57.069Z,15.60
2019-06-27T03:12:04.201Z,15.50
2019-06-27T03:17:08.642Z,15.50
2019-06-27T03:22:13.181Z,15.50
2019-06-27T03:27:16.519Z,15.50
2019-06-27T03:32:21.017Z,15.50
2019-06-27T03:37:25.564Z,15.50
2019-06-27T03:42:27.374Z,15.40
2019-06-27T03:47:37.708Z,15.50
2019-06-27T03:52:42.298Z,15.50
2019-06-27T03:57:49.351Z,15.50
2019-06-27T04:02:50.823Z,15.60
2019-06-27T04:08:00.226Z,15.60
2019-06-27T04:13:10.593Z,15.70
2019-06-27T04:18:15.120Z,15.70
2019-06-27T04:23:18.415Z,15.80
2019-06-27T04:28:37.466Z,15.80
2019-06-27T04:33:42.656Z,15.90
2019-06-27T04:39:16.150Z,15.90
2019-06-27T04:44:24.843Z,16.00
2019-06-27T04:49:26.113Z,16.10
2019-06-27T04:54:27.435Z,16.10
2019-06-27T04:59:52.549Z,16.20
2019-06-27T05:04:42.724Z,16.20
2019-06-27T05:09:47.223Z,16.30
2019-06-27T05:14:50.764Z,16.40
2019-06-27T05:20:18.916Z,16.50
2019-06-27T05:25:23.280Z,16.60
2019-06-27T05:30:26.611Z,16.80
2019-06-27T05:35:32.673Z,16.90
2019-06-27T05:40:38.351Z,17.20
2019-06-27T05:45:59.114Z,17.90
2019-06-27T05:51:06.419Z,18.70
2019-06-27T05:56:07.688Z,19.30
2019-06-27T06:01:23.024Z,18.90
2019-06-27T06:06:27.560Z,18.50
2019-06-27T06:11:29.059Z,18.30
2019-06-27T06:16:36.586Z,18.30
2019-06-27T06:21:47.964Z,18.40
2019-06-27T06:26:53.169Z,18.60
2019-06-27T06:31:57.658Z,18.90
2019-06-27T06:37:08.114Z,19.00
2019-06-27T06:42:12.591Z,19.10
2019-06-27T06:47:15.017Z,19.10
2019-06-27T06:52:44.299Z,19.20
2019-06-27T06:57:48.629Z,19.30
2019-06-27T07:02:53.189Z,19.40
2019-06-27T07:07:57.703Z,19.50
2019-06-27T07:13:02.322Z,19.50
2019-06-27T07:18:03.870Z,19.80
2019-06-27T07:23:11.083Z,20.30
2019-06-27T07:28:12.491Z,20.60
2019-06-27T07:33:17.143Z,20.70
2019-06-27T07:38:19.454Z,20.60
2019-06-27T07:43:33.838Z,20.90
2019-06-27T07:48:38.376Z,21.60
2019-06-27T07:53:40.845Z,22.10
2019-06-27T07:58:48.297Z,22.60
2019-06-27T08:03:53.255Z,22.70
2019-06-27T08:08:56.543Z,22.70
2019-06-27T08:14:01.523Z,22.90
2019-06-27T08:19:09.004Z,22.90
2019-06-27T08:24:13.563Z,23.20
2019-06-27T08:29:46.520Z,23.50
2019-06-27T08:34:47.816Z,24.00
2019-06-27T08:39:52.563Z,24.20
2019-06-27T08:45:07.140Z,24.50
2019-06-27T08:50:21.618Z,25.00
2019-06-27T08:55:22.854Z,25.20
2019-06-27T09:00:27.658Z,25.20
2019-06-27T09:05:47.319Z,25.50
2019-06-27T09:10:51.973Z,26.00
2019-06-27T09:15:53.324Z,26.10
2019-06-27T09:20:57.877Z,26.30
2019-06-27T09:26:25.943Z,26.40
2019-06-27T09:31:33.249Z,26.60
2019-06-27T09:36:34.487Z,26.50
2019-06-27T09:41:39.087Z,26.70
2019-06-27T09:46:48.272Z,26.70
2019-06-27T09:51:52.770Z,27.10
2019-06-27T09:56:55.167Z,27.60
2019-06-27T10:01:57.555Z,27.90
2019-06-27T10:07:02.096Z,27.80
2019-06-27T10:12:05.405Z,28.00
2019-06-27T10:17:08.871Z,27.90
2019-06-27T10:22:13.973Z,28.30
2019-06-27T10:27:21.091Z,28.10
2019-06-27T10:32:25.436Z,28.10
2019-06-27T10:37:27.870Z,28.20
2019-06-27T10:42:32.392Z,28.30
2019-06-27T10:47:33.692Z,28.60
2019-06-27T10:52:37.204Z,28.70
2019-06-27T10:57:44.837Z,29.30
2019-06-27T11:02:46.324Z,29.40
2019-06-27T11:07:52.659Z,29.30
2019-06-27T11:12:59.801Z,29.20
2019-06-27T11:18:04.530Z,29.40
2019-06-27T11:23:06.127Z,29.70
2019-06-27T11:28:22.805Z,29.70
2019-06-27T11:33:41.681Z,29.90
2019-06-27T11:39:05.855Z,30.20
2019-06-27T11:44:07.261Z,30.00
2019-06-27T11:49:18.854Z,30.30
2019-06-27T11:54:28.173Z,30.40
2019-06-27T11:59:29.475Z,30.40
2019-06-27T12:04:31.832Z,30.30
2019-06-27T12:09:36.352Z,30.40
2019-06-27T12:14:40.841Z,30.50
2019-06-27T12:19:45.475Z,30.50
2019-06-27T12:24:49.999Z,30.70
2019-06-27T12:29:51.280Z,30.90
2019-06-27T12:34:58.390Z,30.70
2019-06-27T12:40:09.175Z,31.00
2019-06-27T12:45:15.740Z,31.30
2019-06-27T12:50:18.702Z,31.40
2019-06-27T12:55:20.355Z,31.50
2019-06-27T13:00:27.540Z,31.60
2019-06-27T13:05:32.191Z,31.60
2019-06-27T13:10:35.862Z,32.00
2019-06-27T13:15:43.529Z,32.20
2019-06-27T13:20:58.012Z,32.40
2019-06-27T13:25:57.126Z,32.20
2019-06-27T13:30:58.394Z,32.30
2019-06-27T13:35:59.747Z,32.60
2019-06-27T13:41:02.420Z,33.20
2019-06-27T13:46:07.311Z,33.20
2019-06-27T13:51:11.777Z,33.40
2019-06-27T13:56:16.336Z,33.70
2019-06-27T14:01:29.833Z,33.80
2019-06-27T14:06:34.368Z,33.90
2019-06-27T14:11:40.737Z,34.20
2019-06-27T14:16:51.442Z,34.20
2019-06-27T14:21:52.769Z,33.90
2019-06-27T14:27:04.714Z,34.00
2019-06-27T14:32:06.127Z,33.90
2019-06-27T14:37:09.609Z,34.60
2019-06-27T14:42:12.083Z,34.70
2019-06-27T14:47:13.423Z,34.80
2019-06-27T14:52:29.412Z,34.90
2019-06-27T14:57:34.896Z,35.00
2019-06-27T15:08:41.017Z,35.50
2019-06-27T15:13:44.312Z,35.60
2019-06-27T15:18:51.388Z,35.60
2019-06-27T15:23:52.774Z,35.90
2019-06-27T15:29:15.930Z,36.30
2019-06-27T15:34:23.405Z,36.70
2019-06-27T15:39:30.888Z,37.00
2019-06-27T15:44:32.087Z,37.20
2019-06-27T15:49:36.760Z,37.20
2019-06-27T15:54:39.191Z,36.90
2019-06-27T15:59:40.641Z,36.90
2019-06-27T16:04:42.056Z,36.40
2019-06-27T16:10:23.817Z,35.00
2019-06-27T16:15:25.063Z,34.30
2019-06-27T16:20:29.476Z,32.80
2019-06-27T16:25:31.832Z,31.30
2019-06-27T16:30:34.711Z,30.30
2019-06-27T16:35:43.994Z,29.50
2019-06-27T16:40:45.993Z,28.80
2019-06-27T16:45:49.800Z,28.40
2019-06-27T16:50:54.351Z,28.00
2019-06-27T16:56:07.752Z,27.70
2019-06-27T17:01:10.091Z,27.50
2019-06-27T17:06:14.642Z,27.30
2019-06-27T17:11:16.189Z,27.20
2019-06-27T17:16:28.707Z,27.00
2019-06-27T17:21:31.078Z,26.90
2019-06-27T17:26:35.622Z,26.80
2019-06-27T17:31:48.615Z,26.70
2019-06-27T17:36:57.356Z,26.60
2019-06-27T17:42:09.176Z,26.40
2019-06-27T17:47:16.548Z,26.20
2019-06-27T17:52:21.070Z,26.20
2019-06-27T17:57:22.468Z,25.90
2019-06-27T18:02:23.664Z,25.80
2019-06-27T18:07:30.160Z,25.70
2019-06-27T18:12:32.543Z,25.50
2019-06-27T18:17:34.304Z,25.20
2019-06-27T18:22:36.078Z,25.00
2019-06-27T18:27:37.473Z,24.90
2019-06-27T18:32:54.062Z,24.80
2019-06-27T18:37:56.445Z,24.60
2019-06-27T18:43:03.819Z,24.50
2019-06-27T18:48:05.139Z,24.30
2019-06-27T18:53:09.171Z,24.10
2019-06-27T18:58:11.827Z,23.90
2019-06-27T19:03:37.854Z,23.70
2019-06-27T19:08:39.299Z,23.60
2019-06-27T19:13:41.407Z,23.40
2019-06-27T19:18:54.667Z,23.20
2019-06-27T19:24:03.839Z,22.90
2019-06-27T19:29:09.050Z,22.80
2019-06-27T19:34:10.319Z,22.50
2019-06-27T19:39:12.741Z,22.30
2019-06-27T19:44:24.013Z,22.00
2019-06-27T19:49:28.556Z,21.70
2019-06-27T19:54:33.124Z,21.40
2019-06-27T19:59:40.488Z,21.20
2019-06-27T20:04:54.299Z,20.90
2019-06-27T20:09:55.641Z,20.70
2019-06-27T20:15:00.676Z,20.40
2019-06-27T20:20:22.114Z,20.20
2019-06-27T20:25:23.376Z,20.00
2019-06-27T20:30:28.428Z,19.80
2019-06-27T20:35:54.766Z,19.60
2019-06-27T20:41:08.354Z,19.50
2019-06-27T20:46:12.876Z,19.30
2019-06-27T20:51:21.204Z,19.20
2019-06-27T20:56:23.529Z,19.00
2019-06-27T21:01:26.855Z,18.90
2019-06-27T21:06:29.248Z,18.80
2019-06-27T21:11:32.578Z,18.60
2019-06-27T21:16:49.052Z,18.50
2019-06-27T21:21:53.613Z,18.40
2019-06-27T21:26:55.097Z,18.30
2019-06-27T21:32:31.147Z,18.30
2019-06-27T21:37:24.862Z,18.10
2019-06-27T21:42:26.094Z,18.00
2019-06-27T21:47:28.287Z,17.90
2019-06-27T21:52:37.432Z,17.80
2019-06-27T21:57:39.851Z,17.70
2019-06-27T22:02:44.384Z,17.60
2019-06-27T22:07:58.808Z,17.50
2019-06-27T22:13:00.040Z,17.50
2019-06-27T22:18:24.002Z,17.30
2019-06-27T22:23:25.308Z,17.30
2019-06-27T22:28:29.842Z,17.10
2019-06-27T22:33:34.373Z,17.10
2019-06-27T22:38:54.145Z,16.90
2019-06-27T22:44:44.098Z,16.90
2019-06-27T22:49:48.397Z,16.80
2019-06-27T22:54:51.578Z,16.70
2019-06-27T22:59:58.873Z,16.70
2019-06-27T23:05:00.153Z,16.60
2019-06-27T23:10:04.811Z,16.50
2019-06-27T23:15:08.854Z,16.30
2019-06-27T23:20:10.954Z,16.30
2019-06-27T23:25:15.392Z,16.10
2019-06-27T23:30:20.049Z,16.00
2019-06-27T23:35:21.288Z,16.00
2019-06-27T23:40:28.708Z,16.00
2019-06-27T23:45:31.182Z,15.90
2019-06-27T23:50:32.594Z,15.80
2019-06-27T23:55:37.458Z,15.70
